KLM497 LBSF-LIRN
Flight info
| Callsign | KLM497 |
|---|---|
| Flight time | 1h 19m |
| Altitude | 38000 |
| Route | NAPET T214 SIN DCT DOBAR DCT PAPIZ DCT OKIMO DCT DOGUS DCT EKTOL |
| Aircraft | B738/M-SDE2E3FGHIRWXY/LB1 |
Departure
| Time | 2026-05-04 15:19 |
|---|---|
| Airport | Sofia Airport (LBSF) |
Arrival
| Time | 2026-05-04 16:39 |
|---|---|
| Airport | Naples International Airport (LIRN) |
| Time | Latitude | Longitude | Altitude | Speed | Heading |
|---|---|---|---|---|---|
| 2026-05-04 14:57 | 42.69137 | 23.41286 | 1750 ft | 0 kts | 66° |
| 2026-05-04 15:10 | 42.69133 | 23.41271 | 1750 ft | 2 kts | 66° |
| 2026-05-04 15:11 | 42.69126 | 23.41251 | 1750 ft | 2 kts | 66° |
| 2026-05-04 15:11 | 42.69119 | 23.41232 | 1750 ft | 2 kts | 51° |
| 2026-05-04 15:11 | 42.69107 | 23.41222 | 1750 ft | 1 kts | 338° |
| 2026-05-04 15:11 | 42.69100 | 23.41227 | 1750 ft | 0 kts | 322° |
| 2026-05-04 15:13 | 42.69129 | 23.41186 | 1750 ft | 13 kts | 297° |
| 2026-05-04 15:14 | 42.69124 | 23.41069 | 1750 ft | 13 kts | 251° |
| 2026-05-04 15:14 | 42.69086 | 23.40928 | 1750 ft | 20 kts | 250° |
| 2026-05-04 15:14 | 42.69054 | 23.40744 | 1750 ft | 20 kts | 287° |
| 2026-05-04 15:14 | 42.69093 | 23.40569 | 1750 ft | 19 kts | 287° |
| 2026-05-04 15:15 | 42.69130 | 23.40402 | 1750 ft | 18 kts | 286° |
| 2026-05-04 15:15 | 42.69167 | 23.40236 | 1750 ft | 20 kts | 287° |
| 2026-05-04 15:15 | 42.69206 | 23.40063 | 1750 ft | 19 kts | 287° |
| 2026-05-04 15:16 | 42.69293 | 23.39752 | 1750 ft | 17 kts | 288° |
| 2026-05-04 15:16 | 42.69332 | 23.39609 | 1750 ft | 16 kts | 304° |
| 2026-05-04 15:16 | 42.69536 | 23.39597 | 1750 ft | 17 kts | 5° |
| 2026-05-04 15:17 | 42.69655 | 23.39612 | 1750 ft | 17 kts | 5° |
| 2026-05-04 15:17 | 42.69689 | 23.39616 | 1750 ft | 0 kts | 5° |
| 2026-05-04 15:18 | 42.69691 | 23.39616 | 1750 ft | 3 kts | 5° |
| 2026-05-04 15:18 | 42.69748 | 23.39624 | 1750 ft | 5 kts | 5° |
| 2026-05-04 15:18 | 42.69767 | 23.39659 | 1750 ft | 7 kts | 92° |
| 2026-05-04 15:19 | 42.69709 | 23.40660 | 1750 ft | 108 kts | 95° |
| 2026-05-04 15:19 | 42.69635 | 23.41898 | 1752 ft | 153 kts | 94° |
| 2026-05-04 15:19 | 42.69430 | 23.45016 | 2712 ft | 170 kts | 94° |
| 2026-05-04 15:20 | 42.69323 | 23.46660 | 2906 ft | 182 kts | 95° |
| 2026-05-04 15:20 | 42.69262 | 23.48405 | 3161 ft | 187 kts | 91° |
| 2026-05-04 15:20 | 42.69199 | 23.50197 | 3437 ft | 193 kts | 91° |
| 2026-05-04 15:20 | 42.69125 | 23.52054 | 3712 ft | 200 kts | 91° |
| 2026-05-04 15:21 | 42.69045 | 23.53992 | 3975 ft | 210 kts | 91° |
| 2026-05-04 15:21 | 42.68958 | 23.56045 | 4224 ft | 225 kts | 91° |
| 2026-05-04 15:21 | 42.67931 | 23.60244 | 4833 ft | 251 kts | 126° |
| 2026-05-04 15:22 | 42.66593 | 23.61907 | 5246 ft | 272 kts | 145° |
| 2026-05-04 15:22 | 42.64834 | 23.62945 | 5892 ft | 281 kts | 166° |
| 2026-05-04 15:22 | 42.61065 | 23.61874 | 7463 ft | 284 kts | 214° |
| 2026-05-04 15:23 | 42.59484 | 23.60342 | 8376 ft | 283 kts | 217° |
| 2026-05-04 15:23 | 42.57857 | 23.58772 | 9244 ft | 285 kts | 217° |
| 2026-05-04 15:23 | 42.56250 | 23.57215 | 9954 ft | 292 kts | 217° |
| 2026-05-04 15:23 | 42.54587 | 23.55581 | 10638 ft | 300 kts | 217° |
| 2026-05-04 15:24 | 42.51345 | 23.51620 | 11361 ft | 339 kts | 233° |
| 2026-05-04 15:24 | 42.48738 | 23.45877 | 12109 ft | 374 kts | 243° |
| 2026-05-04 15:25 | 42.47474 | 23.42772 | 12873 ft | 378 kts | 242° |
| 2026-05-04 15:25 | 42.46164 | 23.39668 | 13699 ft | 381 kts | 241° |
| 2026-05-04 15:25 | 42.44834 | 23.36554 | 14521 ft | 384 kts | 242° |
| 2026-05-04 15:26 | 42.42106 | 23.30255 | 16133 ft | 391 kts | 241° |
| 2026-05-04 15:26 | 42.40702 | 23.27082 | 16911 ft | 395 kts | 240° |
| 2026-05-04 15:26 | 42.37848 | 23.20678 | 18389 ft | 401 kts | 240° |
| 2026-05-04 15:27 | 42.36395 | 23.17428 | 19098 ft | 405 kts | 240° |
| 2026-05-04 15:27 | 42.33955 | 23.11979 | 20217 ft | 411 kts | 240° |
| 2026-05-04 15:28 | 42.30970 | 23.05321 | 21510 ft | 417 kts | 239° |
| 2026-05-04 15:28 | 42.29462 | 23.01960 | 22127 ft | 420 kts | 239° |
| 2026-05-04 15:28 | 42.26348 | 22.95216 | 23324 ft | 426 kts | 237° |
| 2026-05-04 15:29 | 42.24740 | 22.91851 | 23885 ft | 428 kts | 237° |
| 2026-05-04 15:30 | 42.18169 | 22.78169 | 25912 ft | 441 kts | 236° |
| 2026-05-04 15:30 | 42.13108 | 22.67665 | 27223 ft | 450 kts | 236° |
| 2026-05-04 15:31 | 42.09676 | 22.60547 | 28014 ft | 456 kts | 236° |
| 2026-05-04 15:31 | 42.07958 | 22.56951 | 28405 ft | 459 kts | 237° |
| 2026-05-04 15:32 | 42.02692 | 22.46054 | 29475 ft | 467 kts | 237° |
| 2026-05-04 15:32 | 41.99130 | 22.38692 | 30111 ft | 473 kts | 238° |
| 2026-05-04 15:33 | 41.96105 | 22.30851 | 30970 ft | 471 kts | 246° |
| 2026-05-04 15:34 | 41.92083 | 22.18861 | 32266 ft | 468 kts | 247° |
| 2026-05-04 15:34 | 41.90736 | 22.14882 | 32602 ft | 469 kts | 248° |
| 2026-05-04 15:34 | 41.88052 | 22.06981 | 33396 ft | 468 kts | 249° |
| 2026-05-04 15:35 | 41.85349 | 21.99057 | 34160 ft | 466 kts | 249° |
| 2026-05-04 15:35 | 41.84000 | 21.95108 | 34507 ft | 466 kts | 249° |
| 2026-05-04 15:35 | 41.82679 | 21.91152 | 34923 ft | 464 kts | 250° |
| 2026-05-04 15:36 | 41.80035 | 21.83281 | 35614 ft | 463 kts | 250° |
| 2026-05-04 15:36 | 41.78705 | 21.79357 | 35985 ft | 462 kts | 249° |
| 2026-05-04 15:36 | 41.77373 | 21.75447 | 36344 ft | 461 kts | 249° |
| 2026-05-04 15:37 | 41.76042 | 21.71552 | 36677 ft | 460 kts | 249° |
| 2026-05-04 15:37 | 41.74710 | 21.67664 | 37005 ft | 459 kts | 249° |
| 2026-05-04 15:37 | 41.73379 | 21.63789 | 37329 ft | 458 kts | 249° |
| 2026-05-04 15:37 | 41.72050 | 21.59924 | 37649 ft | 457 kts | 249° |
| 2026-05-04 15:38 | 41.70721 | 21.56062 | 37951 ft | 456 kts | 249° |
| 2026-05-04 15:38 | 41.69389 | 21.52202 | 38071 ft | 459 kts | 249° |
| 2026-05-04 15:38 | 41.66711 | 21.44453 | 38088 ft | 458 kts | 249° |
| 2026-05-04 15:39 | 41.64045 | 21.36763 | 38095 ft | 453 kts | 249° |
| 2026-05-04 15:40 | 41.60064 | 21.25317 | 38101 ft | 453 kts | 249° |
| 2026-05-04 15:40 | 41.57422 | 21.17748 | 38104 ft | 452 kts | 249° |
| 2026-05-04 15:41 | 41.54764 | 21.10149 | 38103 ft | 452 kts | 249° |
| 2026-05-04 15:41 | 41.52102 | 21.02565 | 38103 ft | 451 kts | 249° |
| 2026-05-04 15:42 | 41.49438 | 20.94991 | 38105 ft | 450 kts | 249° |
| 2026-05-04 15:42 | 41.46780 | 20.87435 | 38107 ft | 450 kts | 249° |
| 2026-05-04 15:43 | 41.44140 | 20.79874 | 38108 ft | 450 kts | 249° |
| 2026-05-04 15:43 | 41.41464 | 20.72346 | 38112 ft | 450 kts | 249° |
| 2026-05-04 15:44 | 41.38778 | 20.64829 | 38113 ft | 449 kts | 249° |
| 2026-05-04 15:44 | 41.36092 | 20.57330 | 38114 ft | 449 kts | 249° |
| 2026-05-04 15:45 | 41.33408 | 20.49825 | 38115 ft | 448 kts | 250° |
| 2026-05-04 15:45 | 41.31124 | 20.42152 | 38118 ft | 445 kts | 255° |
| 2026-05-04 15:46 | 41.29021 | 20.34419 | 38121 ft | 445 kts | 254° |
| 2026-05-04 15:46 | 41.26873 | 20.26698 | 38125 ft | 445 kts | 254° |
| 2026-05-04 15:47 | 41.24708 | 20.18998 | 38129 ft | 445 kts | 254° |
| 2026-05-04 15:47 | 41.22530 | 20.11299 | 38132 ft | 445 kts | 254° |
| 2026-05-04 15:48 | 41.20372 | 20.03594 | 38135 ft | 445 kts | 254° |
| 2026-05-04 15:48 | 41.17161 | 19.92087 | 38138 ft | 441 kts | 254° |
| 2026-05-04 15:49 | 41.15009 | 19.84480 | 38139 ft | 440 kts | 254° |
| 2026-05-04 15:49 | 41.12845 | 19.76876 | 38140 ft | 440 kts | 254° |
| 2026-05-04 15:50 | 41.10693 | 19.69342 | 38139 ft | 440 kts | 254° |
| 2026-05-04 15:50 | 41.08508 | 19.61714 | 38139 ft | 440 kts | 254° |
| 2026-05-04 15:51 | 41.06348 | 19.54199 | 38137 ft | 439 kts | 254° |
| 2026-05-04 15:51 | 41.04171 | 19.46645 | 38137 ft | 439 kts | 254° |
| 2026-05-04 15:52 | 41.01992 | 19.39109 | 38136 ft | 438 kts | 254° |
| 2026-05-04 15:52 | 40.99834 | 19.31571 | 38135 ft | 437 kts | 254° |
| 2026-05-04 15:53 | 40.97663 | 19.24057 | 38133 ft | 437 kts | 254° |
| 2026-05-04 15:53 | 40.95469 | 19.16567 | 38139 ft | 436 kts | 253° |
| 2026-05-04 15:54 | 40.93269 | 19.09089 | 38139 ft | 436 kts | 254° |
| 2026-05-04 15:54 | 40.91070 | 19.01626 | 38139 ft | 435 kts | 254° |
| 2026-05-04 15:55 | 40.89667 | 18.93976 | 38140 ft | 424 kts | 270° |
| 2026-05-04 15:55 | 40.89633 | 18.86219 | 38139 ft | 421 kts | 277° |
| 2026-05-04 15:56 | 40.89980 | 18.78517 | 38139 ft | 419 kts | 277° |
| 2026-05-04 15:56 | 40.90341 | 18.70833 | 38139 ft | 418 kts | 277° |
| 2026-05-04 15:57 | 40.90698 | 18.63155 | 38139 ft | 418 kts | 277° |
| 2026-05-04 15:57 | 40.91052 | 18.55485 | 38139 ft | 418 kts | 277° |
| 2026-05-04 15:58 | 40.91419 | 18.47834 | 38140 ft | 416 kts | 278° |
| 2026-05-04 15:58 | 40.91846 | 18.40190 | 38140 ft | 417 kts | 278° |
| 2026-05-04 15:59 | 40.92201 | 18.32540 | 38138 ft | 417 kts | 277° |
| 2026-05-04 15:59 | 40.92533 | 18.24896 | 38138 ft | 416 kts | 277° |
| 2026-05-04 16:00 | 40.92856 | 18.17309 | 38137 ft | 416 kts | 277° |
| 2026-05-04 16:00 | 40.93180 | 18.09675 | 38136 ft | 416 kts | 277° |
| 2026-05-04 16:01 | 40.93513 | 18.01988 | 38136 ft | 416 kts | 277° |
| 2026-05-04 16:01 | 40.93856 | 17.94414 | 38135 ft | 413 kts | 277° |
| 2026-05-04 16:02 | 40.94187 | 17.86854 | 38133 ft | 411 kts | 277° |
| 2026-05-04 16:03 | 40.94671 | 17.75503 | 38131 ft | 412 kts | 277° |
| 2026-05-04 16:03 | 40.94987 | 17.67930 | 38129 ft | 412 kts | 277° |
| 2026-05-04 16:04 | 40.95297 | 17.60359 | 38127 ft | 412 kts | 277° |
| 2026-05-04 16:04 | 40.95836 | 17.49016 | 38124 ft | 412 kts | 277° |
| 2026-05-04 16:05 | 40.96169 | 17.41443 | 38122 ft | 412 kts | 277° |
| 2026-05-04 16:06 | 40.96642 | 17.30113 | 38125 ft | 411 kts | 277° |
| 2026-05-04 16:07 | 40.97245 | 17.15015 | 38127 ft | 410 kts | 277° |
| 2026-05-04 16:08 | 40.97825 | 16.99940 | 38126 ft | 410 kts | 277° |
| 2026-05-04 16:09 | 40.98521 | 16.81133 | 38121 ft | 409 kts | 277° |
| 2026-05-04 16:10 | 40.99054 | 16.66126 | 38119 ft | 408 kts | 277° |
| 2026-05-04 16:11 | 40.99441 | 16.54873 | 37213 ft | 406 kts | 276° |
| 2026-05-04 16:11 | 40.99568 | 16.51131 | 36532 ft | 407 kts | 276° |
| 2026-05-04 16:12 | 40.99941 | 16.39873 | 34441 ft | 409 kts | 276° |
| 2026-05-04 16:12 | 41.00300 | 16.28689 | 32813 ft | 400 kts | 275° |
| 2026-05-04 16:13 | 41.00529 | 16.21382 | 31799 ft | 394 kts | 275° |
| 2026-05-04 16:13 | 41.00750 | 16.14185 | 30808 ft | 389 kts | 275° |
| 2026-05-04 16:14 | 41.01000 | 16.07066 | 29841 ft | 388 kts | 275° |
| 2026-05-04 16:14 | 41.01214 | 15.99904 | 28882 ft | 394 kts | 275° |
| 2026-05-04 16:15 | 41.01505 | 15.89179 | 27428 ft | 384 kts | 274° |
| 2026-05-04 16:16 | 41.01690 | 15.82170 | 26471 ft | 378 kts | 274° |
| 2026-05-04 16:16 | 41.01982 | 15.71850 | 25044 ft | 370 kts | 276° |
| 2026-05-04 16:17 | 41.02639 | 15.66310 | 24259 ft | 364 kts | 283° |
| 2026-05-04 16:18 | 41.04298 | 15.56592 | 22875 ft | 357 kts | 284° |
| 2026-05-04 16:18 | 41.04852 | 15.53389 | 22420 ft | 356 kts | 283° |
| 2026-05-04 16:19 | 41.06441 | 15.43837 | 21050 ft | 352 kts | 283° |
| 2026-05-04 16:19 | 41.07472 | 15.37518 | 20139 ft | 350 kts | 283° |
| 2026-05-04 16:20 | 41.08999 | 15.28110 | 18779 ft | 346 kts | 282° |
| 2026-05-04 16:20 | 41.10006 | 15.21893 | 17880 ft | 344 kts | 282° |
| 2026-05-04 16:21 | 41.08328 | 15.13049 | 16855 ft | 338 kts | 234° |
| 2026-05-04 16:22 | 41.05178 | 15.08431 | 16422 ft | 339 kts | 229° |
| 2026-05-04 16:22 | 41.00507 | 15.01362 | 15575 ft | 339 kts | 231° |
| 2026-05-04 16:23 | 40.95931 | 14.94344 | 14449 ft | 332 kts | 230° |
| 2026-05-04 16:24 | 40.89951 | 14.85232 | 12946 ft | 324 kts | 230° |
| 2026-05-04 16:25 | 40.87248 | 14.80566 | 12197 ft | 320 kts | 239° |
| 2026-05-04 16:26 | 40.88745 | 14.71003 | 10672 ft | 280 kts | 329° |
| 2026-05-04 16:26 | 40.94308 | 14.71406 | 9558 ft | 281 kts | 23° |
| 2026-05-04 16:27 | 40.97727 | 14.74038 | 8869 ft | 290 kts | 44° |
| 2026-05-04 16:28 | 41.00982 | 14.80483 | 8071 ft | 272 kts | 59° |
| 2026-05-04 16:28 | 41.04208 | 14.85993 | 7750 ft | 248 kts | 20° |
| 2026-05-04 16:29 | 41.07937 | 14.80819 | 7022 ft | 232 kts | 266° |
| 2026-05-04 16:30 | 41.07150 | 14.74467 | 7024 ft | 239 kts | 259° |
| 2026-05-04 16:31 | 41.06569 | 14.70053 | 7016 ft | 245 kts | 259° |
| 2026-05-04 16:31 | 41.04924 | 14.63677 | 6539 ft | 251 kts | 238° |
| 2026-05-04 16:32 | 41.02136 | 14.57827 | 5472 ft | 245 kts | 238° |
| 2026-05-04 16:33 | 41.00451 | 14.54251 | 4796 ft | 213 kts | 238° |
| 2026-05-04 16:33 | 40.99019 | 14.51205 | 4218 ft | 179 kts | 238° |
| 2026-05-04 16:34 | 40.97739 | 14.48459 | 3744 ft | 177 kts | 238° |
| 2026-05-04 16:34 | 40.97102 | 14.47077 | 3477 ft | 173 kts | 238° |
| 2026-05-04 16:35 | 40.95294 | 14.43268 | 2795 ft | 154 kts | 237° |
| 2026-05-04 16:35 | 40.93665 | 14.39803 | 2149 ft | 149 kts | 238° |
| 2026-05-04 16:36 | 40.93125 | 14.38650 | 1911 ft | 147 kts | 238° |
| 2026-05-04 16:36 | 40.92064 | 14.36417 | 1496 ft | 143 kts | 237° |
| 2026-05-04 16:37 | 40.91001 | 14.34168 | 1071 ft | 145 kts | 236° |
| 2026-05-04 16:37 | 40.90471 | 14.33043 | 840 ft | 142 kts | 236° |
| 2026-05-04 16:37 | 40.89449 | 14.30864 | 437 ft | 139 kts | 236° |
| 2026-05-04 16:38 | 40.88499 | 14.28857 | 302 ft | 73 kts | 237° |
| 2026-05-04 16:39 | 40.88233 | 14.28430 | 302 ft | 0 kts | 210° |
| 2026-05-04 16:39 | 40.88223 | 14.28422 | 302 ft | 9 kts | 210° |
| 2026-05-04 16:40 | 40.88065 | 14.28246 | 302 ft | 14 kts | 241° |
| 2026-05-04 16:40 | 40.87974 | 14.28127 | 302 ft | 8 kts | 150° |
| 2026-05-04 16:41 | 40.87897 | 14.28195 | 302 ft | 5 kts | 159° |
| 2026-05-04 16:41 | 40.87874 | 14.28206 | 302 ft | 0 kts | 161° |